Terminal Aerodrome Forecast
Issued by NWS

Home | Current Version | Previous Version | Text Only | Print | Product List | Glossary On
Versions: 1 2 3 4 5 6 7 8 9 10 11 12 13 14
000
FTPA31 PHFO 271030 AAA
TAFSTU
TAF AMD
NSTU 271030Z 2711/2806 11011KT P6SM VCSH SCT018 SCT040 BKN100
     FM280300 11010KT 5SM -SHRA SCT015 BKN035 OVC100=

USA.gov is the U.S. government's official web portal to all federal, state and local government web resources and services.